Time;durP1;ratioP1;P1;durP2;ratioP2;P2;SDS_P1;SDS_P2;PMS_P1;PMS_P2;Temp;Humidity;BMP_temperature;BMP_pressure;BME280_temperature;BME280_humidity;BME280_pressure;Samples;Min_cycle;Max_cycle;Signal;HPM_P1;HPM_P2
2023/01/15 00:00:47;;;;;;;6.65;1.55;;;;;;;6.40;100.00;99880.31;5356660;27;20027;-86
2023/01/15 00:03:18;;;;;;;8.63;2.00;;;;;;;6.39;100.00;99878.63;5362512;27;20027;-86
2023/01/15 00:05:50;;;;;;;7.53;1.67;;;;;;;6.39;100.00;99868.03;5366898;27;20027;-86
2023/01/15 00:08:21;;;;;;;8.05;1.67;;;;;;;6.38;100.00;99866.38;5364764;27;20019;-86
2023/01/15 00:10:52;;;;;;;9.73;2.05;;;;;;;6.38;100.00;99873.47;5367129;27;20478;-86
2023/01/15 00:13:24;;;;;;;9.30;1.63;;;;;;;6.33;100.00;99870.41;5355185;27;20450;-86
2023/01/15 00:16:13;;;;;;;6.68;2.20;;;;;;;6.34;100.00;99867.63;5361158;27;20099;-86
2023/01/15 00:18:52;;;;;;;5.28;1.65;;;;;;;6.34;100.00;99872.09;5364681;27;20035;-86
2023/01/15 00:21:25;;;;;;;10.07;2.00;;;;;;;6.24;100.00;99867.63;5365759;27;20100;-85
2023/01/15 00:29:36;;;;;;;7.10;1.70;;;;;;;6.26;100.00;99859.56;5370716;27;20024;-86
2023/01/15 00:32:08;;;;;;;7.75;2.00;;;;;;;6.28;100.00;99862.06;5364518;27;20019;-86
2023/01/15 00:34:39;;;;;;;10.52;2.47;;;;;;;6.27;100.00;99860.38;5367447;27;20037;-85
2023/01/15 00:37:10;;;;;;;9.38;1.95;;;;;;;6.26;100.00;99859.56;5366800;27;20333;-85
2023/01/15 00:39:42;;;;;;;10.10;2.35;;;;;;;6.23;100.00;99855.34;5361910;27;20523;-85
2023/01/15 00:42:13;;;;;;;8.95;2.38;;;;;;;6.27;100.00;99865.69;5368619;27;20070;-86
2023/01/15 00:44:45;;;;;;;6.57;1.67;;;;;;;6.25;100.00;99873.75;5372825;27;20084;-86
2023/01/15 00:47:17;;;;;;;10.23;1.77;;;;;;;6.24;100.00;99870.28;5364998;27;20027;-86
2023/01/15 00:49:49;;;;;;;13.63;2.30;;;;;;;6.25;100.00;99873.75;5358051;27;20340;-86
2023/01/15 00:52:20;;;;;;;10.27;1.77;;;;;;;6.23;100.00;99873.06;5355363;27;20019;-86
2023/01/15 00:54:52;;;;;;;7.13;1.92;;;;;;;6.22;100.00;99874.88;5369994;27;20030;-86
2023/01/15 00:57:24;;;;;;;10.45;2.00;;;;;;;6.21;100.00;99877.66;5350625;27;20041;-86
2023/01/15 00:59:56;;;;;;;7.80;1.88;;;;;;;6.25;100.00;99887.00;5359978;27;20023;-86
2023/01/15 01:02:27;;;;;;;10.10;2.00;;;;;;;6.20;100.00;99874.16;5360282;27;20027;-85
2023/01/15 01:04:58;;;;;;;6.15;1.60;;;;;;;6.15;100.00;99883.50;5367302;27;20035;-86
2023/01/15 01:07:29;;;;;;;7.95;1.60;;;;;;;6.13;100.00;99885.44;5352032;27;20513;-87
2023/01/15 01:10:01;;;;;;;13.43;2.45;;;;;;;6.12;100.00;99887.28;5349244;27;20112;-86
2023/01/15 01:12:32;;;;;;;10.55;2.30;;;;;;;6.17;100.00;99887.69;5348379;27;20118;-86
2023/01/15 01:15:04;;;;;;;7.55;1.75;;;;;;;6.17;100.00;99879.75;5348862;27;20034;-86
2023/01/15 01:17:38;;;;;;;7.97;1.60;;;;;;;6.20;100.00;99889.22;5367476;27;20426;-86
2023/01/15 01:20:12;;;;;;;6.05;1.63;;;;;;;6.18;100.00;99891.19;5364963;27;20375;-86
2023/01/15 01:22:44;;;;;;;5.68;1.55;;;;;;;6.18;100.00;99880.59;5344613;27;20467;-86
2023/01/15 01:25:15;;;;;;;8.93;1.60;;;;;;;6.21;100.00;99898.84;5344944;27;20110;-86
2023/01/15 01:27:47;;;;;;;8.57;1.70;;;;;;;6.17;100.00;99886.84;5324257;27;20050;-86
2023/01/15 01:30:18;;;;;;;9.77;1.90;;;;;;;6.12;100.00;99881.97;5342485;27;20031;-86
2023/01/15 01:32:49;;;;;;;7.15;2.00;;;;;;;6.13;100.00;99880.16;5340697;27;20035;-86
2023/01/15 01:35:20;;;;;;;10.55;2.35;;;;;;;6.16;100.00;99882.53;5346909;27;20030;-86
2023/01/15 01:37:52;;;;;;;11.57;2.22;;;;;;;6.14;100.00;99884.50;5341739;27;20024;-86
2023/01/15 01:40:23;;;;;;;11.25;2.28;;;;;;;6.13;100.00;99877.50;5340377;27;20043;-86
2023/01/15 01:42:55;;;;;;;9.43;1.70;;;;;;;6.14;100.00;99892.44;5334475;27;20200;-85
2023/01/15 01:45:31;;;;;;;16.83;2.72;;;;;;;6.15;100.00;99886.97;5345195;27;20022;-86
2023/01/15 01:48:05;;;;;;;7.93;1.83;;;;;;;6.12;100.00;99887.28;5320946;27;20480;-86
2023/01/15 01:50:39;;;;;;;6.25;1.70;;;;;;;6.19;100.00;99892.84;5347028;27;20032;-86
2023/01/15 01:53:15;;;;;;;9.48;1.85;;;;;;;6.16;100.00;99880.72;5336497;27;20035;-86
2023/01/15 01:55:48;;;;;;;7.88;1.83;;;;;;;6.10;100.00;99877.78;5344970;27;20031;-86
2023/01/15 01:58:21;;;;;;;11.05;1.67;;;;;;;6.08;100.00;99883.19;5348739;27;20016;-86
2023/01/15 02:00:53;;;;;;;10.77;2.22;;;;;;;6.15;100.00;99892.28;5347967;27;20076;-85
2023/01/15 02:03:30;;;;;;;8.57;2.13;;;;;;;6.10;100.00;99881.28;5347854;27;20024;-85
2023/01/15 02:06:05;;;;;;;9.95;1.40;;;;;;;6.12;100.00;99895.22;5348664;27;20081;-86
2023/01/15 02:08:38;;;;;;;12.10;2.38;;;;;;;6.10;100.00;99883.06;5337697;27;20031;-85
2023/01/15 02:11:17;;;;;;;12.02;2.40;;;;;;;6.07;100.00;99900.09;5319690;27;20096;-85
2023/01/15 02:13:59;;;;;;;11.50;1.50;;;;;;;6.12;100.00;99899.66;5336689;27;20089;-85
2023/01/15 02:16:51;;;;;;;8.05;1.83;;;;;;;6.09;100.00;99902.59;5331666;27;20036;-85
2023/01/15 02:19:48;;;;;;;10.88;1.80;;;;;;;6.06;100.00;99895.75;5339191;27;20024;-85
2023/01/15 02:22:53;;;;;;;6.87;1.57;;;;;;;6.12;100.00;99887.28;5339037;27;20512;-86
2023/01/15 02:25:55;;;;;;;9.95;1.65;;;;;;;6.11;100.00;99892.69;5338961;27;20015;-84
2023/01/15 02:28:37;;;;;;;8.13;1.67;;;;;;;6.11;100.00;99876.81;5345334;27;20103;-85
2023/01/15 02:31:16;;;;;;;12.93;1.77;;;;;;;6.12;100.00;99879.31;5360514;27;20036;-86
2023/01/15 02:34:17;;;;;;;9.48;2.08;;;;;;;6.15;100.00;99871.09;5343549;27;20028;-85
2023/01/15 02:36:55;;;;;;;7.38;2.60;;;;;;;6.05;100.00;99880.84;5335166;27;20020;-85
2023/01/15 02:39:30;;;;;;;7.85;2.30;;;;;;;5.94;100.00;99862.38;5339526;27;20027;-85
2023/01/15 02:42:03;;;;;;;9.15;1.50;;;;;;;5.95;100.00;99870.19;5335974;27;20016;-86
2023/01/15 02:44:40;;;;;;;13.50;2.20;;;;;;;5.93;100.00;99879.25;5334740;27;20020;-85
2023/01/15 02:47:12;;;;;;;;;;;;;;;5.99;100.00;99870.78;5334646;27;20019;-85
2023/01/15 02:49:45;;;;;;;5.90;1.48;;;;;;;5.96;100.00;99866.63;5338971;27;19911;-86
2023/01/15 02:52:27;;;;;;;10.90;1.80;;;;;;;6.02;100.00;99866.06;5337692;27;20028;-85
2023/01/15 02:55:13;;;;;;;8.93;1.75;;;;;;;6.00;100.00;99862.72;5339636;27;20081;-86
2023/01/15 02:57:47;;;;;;;13.05;2.65;;;;;;;5.99;100.00;99861.03;5335219;27;20571;-85
2023/01/15 03:00:21;;;;;;;11.52;1.70;;;;;;;5.92;100.00;99840.53;5342548;27;20100;-85
2023/01/15 03:03:00;;;;;;;8.80;2.13;;;;;;;5.95;100.00;99851.66;5313962;27;20027;-86
2023/01/15 03:05:38;;;;;;;7.32;1.60;;;;;;;5.91;100.00;99857.38;5333614;27;20077;-86
2023/01/15 03:08:10;;;;;;;14.35;2.45;;;;;;;5.91;100.00;99860.00;5338589;27;20100;-86
2023/01/15 03:10:45;;;;;;;12.82;1.98;;;;;;;5.88;100.00;99869.91;5340537;27;20068;-85
2023/01/15 03:13:28;;;;;;;11.15;1.85;;;;;;;5.91;100.00;99867.94;5333479;27;20034;-86
2023/01/15 03:19:01;;;;;;;9.63;2.05;;;;;;;5.92;100.00;99867.81;5338142;27;20493;-86
2023/01/15 03:21:44;;;;;;;9.27;2.25;;;;;;;5.93;100.00;99868.69;5337201;27;20105;-86
2023/01/15 03:24:26;;;;;;;6.63;1.80;;;;;;;5.92;100.00;99865.16;5332823;27;20032;-86
2023/01/15 03:26:58;;;;;;;8.40;1.80;;;;;;;5.92;100.00;99848.47;5340709;27;20028;-86
2023/01/15 03:29:33;;;;;;;12.15;2.33;;;;;;;5.93;100.00;99844.84;5338369;27;20027;-86
2023/01/15 03:32:05;;;;;;;11.95;2.15;;;;;;;5.92;100.00;99857.22;5333821;27;20031;-85
2023/01/15 03:34:41;;;;;;;10.18;1.85;;;;;;;5.91;100.00;99849.41;5331999;27;20040;-86
2023/01/15 03:37:13;;;;;;;13.38;2.17;;;;;;;5.92;100.00;99854.59;5335410;27;20043;-86
2023/01/15 03:39:44;;;;;;;8.07;1.70;;;;;;;5.94;100.00;99854.44;5334477;27;20499;-86
2023/01/15 03:42:45;;;;;;;8.52;1.75;;;;;;;6.00;100.00;99853.94;5335387;27;20027;-86
2023/01/15 03:45:25;;;;;;;8.05;1.52;;;;;;;6.02;100.00;99867.88;5338265;27;20403;-86
2023/01/15 03:48:51;;;;;;;13.90;2.38;;;;;;;6.02;100.00;99871.34;5338372;27;20028;-86
2023/01/15 03:51:37;;;;;;;12.85;2.00;;;;;;;5.99;100.00;99863.69;5239413;27;20036;-86
2023/01/15 03:54:16;;;;;;;10.27;2.00;;;;;;;5.95;100.00;99862.25;5329808;27;20066;-87
2023/01/15 03:56:56;;;;;;;8.63;1.90;;;;;;;5.96;100.00;99865.75;5342184;27;20097;-86
2023/01/15 03:59:33;;;;;;;12.45;2.05;;;;;;;5.90;100.00;99859.19;5337162;27;20069;-86
2023/01/15 04:02:09;;;;;;;8.77;2.08;;;;;;;5.89;100.00;99865.47;5331983;27;20043;-87
2023/01/15 04:04:43;;;;;;;10.65;2.58;;;;;;;5.92;100.00;99867.81;5339626;27;20032;-86
2023/01/15 04:07:15;;;;;;;7.68;2.38;;;;;;;5.93;100.00;99863.38;5328312;27;20034;-87
2023/01/15 04:09:47;;;;;;;8.15;1.77;;;;;;;5.95;100.00;99859.63;5348907;27;20333;-87
2023/01/15 04:12:18;;;;;;;9.60;2.13;;;;;;;5.99;100.00;99863.69;5335196;27;20032;-85
2023/01/15 04:14:49;;;;;;;7.55;1.67;;;;;;;5.95;100.00;99864.91;5350643;27;20360;-86
2023/01/15 04:17:21;;;;;;;11.15;2.30;;;;;;;5.91;100.00;99862.66;5342239;27;20031;-86
2023/01/15 04:19:52;;;;;;;12.18;1.77;;;;;;;5.86;100.00;99868.38;5346398;27;20043;-85
2023/01/15 04:22:23;;;;;;;7.70;1.80;;;;;;;5.82;100.00;99861.66;5354843;27;20051;-86
2023/01/15 04:24:55;;;;;;;11.20;2.20;;;;;;;5.76;100.00;99863.03;5358974;27;20077;-86
2023/01/15 04:27:27;;;;;;;9.98;1.58;;;;;;;5.81;100.00;99867.94;5367473;27;20114;-85
2023/01/15 04:29:58;;;;;;;10.13;2.28;;;;;;;5.75;100.00;99853.44;5372961;27;20030;-86
2023/01/15 04:32:29;;;;;;;12.13;2.60;;;;;;;5.67;100.00;99845.34;5365500;27;20023;-86
2023/01/15 04:35:00;;;;;;;10.80;1.70;;;;;;;5.66;100.00;99863.03;5373051;27;20126;-85
2023/01/15 04:37:32;;;;;;;11.05;2.10;;;;;;;5.62;100.00;99858.97;5364431;27;20026;-85
2023/01/15 04:40:05;;;;;;;8.70;2.35;;;;;;;5.56;100.00;99867.44;5377563;27;20047;-86
2023/01/15 04:45:26;;;;;;;5.80;1.30;;;;;;;5.69;100.00;99880.44;5366539;27;20396;-85
2023/01/15 04:47:57;;;;;;;8.13;1.75;;;;;;;5.67;100.00;99872.63;5373156;27;20105;-85
2023/01/15 04:50:28;;;;;;;11.40;2.13;;;;;;;5.69;100.00;99877.78;5369480;27;20031;-84
2023/01/15 04:52:59;;;;;;;10.80;2.38;;;;;;;5.73;100.00;99881.84;5368198;27;20035;-85
2023/01/15 04:55:31;;;;;;;11.13;2.13;;;;;;;5.82;100.00;99878.41;5376121;27;20039;-85
2023/01/15 04:58:02;;;;;;;13.02;1.98;;;;;;;5.80;100.00;99890.94;5384801;27;20034;-85
2023/01/15 05:00:34;;;;;;;5.85;1.58;;;;;;;5.76;100.00;99875.44;5384505;27;20023;-85
2023/01/15 05:03:05;;;;;;;13.95;2.50;;;;;;;5.76;100.00;99876.28;5379342;27;20068;-85
2023/01/15 05:05:36;;;;;;;12.30;2.05;;;;;;;5.64;100.00;99866.78;5365413;27;39671;-85
2023/01/15 05:08:08;;;;;;;8.70;1.70;;;;;;;5.69;100.00;99888.38;5364169;27;20027;-86
2023/01/15 05:10:39;;;;;;;12.43;1.80;;;;;;;5.67;100.00;99877.91;5365174;27;20383;-85
2023/01/15 05:13:10;;;;;;;18.27;2.38;;;;;;;5.70;100.00;99876.84;5363083;27;20084;-85
2023/01/15 05:15:45;;;;;;;13.15;2.22;;;;;;;5.73;100.00;99875.72;5359297;27;20103;-85
2023/01/15 05:18:16;;;;;;;10.52;1.63;;;;;;;5.65;100.00;99877.22;5358135;27;20519;-85
2023/01/15 05:20:47;;;;;;;10.95;2.17;;;;;;;5.62;100.00;99866.91;5356090;27;20097;-85
2023/01/15 05:23:19;;;;;;;10.48;2.72;;;;;;;5.61;100.00;99873.19;5338621;27;20030;-85
2023/01/15 05:25:50;;;;;;;9.45;2.13;;;;;;;5.59;100.00;99853.97;5331038;27;20123;-86
2023/01/15 05:28:21;;;;;;;9.02;1.88;;;;;;;5.63;100.00;99863.28;5338776;27;20028;-86
2023/01/15 05:30:52;;;;;;;13.60;2.50;;;;;;;5.63;100.00;99865.13;5314640;27;20054;-86
2023/01/15 05:33:24;;;;;;;10.27;1.80;;;;;;;5.65;100.00;99860.53;5333559;27;20114;-86
2023/01/15 05:36:00;;;;;;;9.20;1.80;;;;;;;5.67;100.00;99862.03;5335083;27;20035;-86
2023/01/15 05:38:32;;;;;;;10.90;2.35;;;;;;;5.67;100.00;99848.81;5338320;27;20027;-86
2023/01/15 05:44:08;;;;;;;12.90;2.20;;;;;;;5.71;100.00;99856.50;5337612;27;20044;-85
2023/01/15 05:46:40;;;;;;;12.05;2.15;;;;;;;5.68;100.00;99854.97;5334337;27;20391;-86
2023/01/15 05:49:14;;;;;;;14.00;2.20;;;;;;;5.66;100.00;99848.94;5332966;27;20054;-86
2023/01/15 05:51:47;;;;;;;6.70;1.63;;;;;;;5.62;100.00;99844.91;5336986;27;20031;-86
2023/01/15 05:54:21;;;;;;;11.82;2.65;;;;;;;5.63;100.00;99851.88;5338685;27;20036;-86
2023/01/15 05:56:53;;;;;;;15.27;2.17;;;;;;;5.62;100.00;99856.31;5341611;27;20035;-86
2023/01/15 05:59:26;;;;;;;12.70;2.72;;;;;;;5.68;100.00;99839.91;5341554;27;20027;-86
2023/01/15 06:01:58;;;;;;;14.18;2.35;;;;;;;5.71;100.00;99840.63;5331804;27;20023;-86
2023/01/15 06:04:29;;;;;;;10.32;1.83;;;;;;;5.67;100.00;99842.69;5333372;27;20024;-86
2023/01/15 06:07:01;;;;;;;13.15;2.20;;;;;;;5.71;100.00;99854.69;5334160;27;20034;-85
2023/01/15 06:09:32;;;;;;;11.90;1.90;;;;;;;5.73;100.00;99849.25;5335765;27;20487;-85
2023/01/15 06:12:04;;;;;;;10.27;2.15;;;;;;;5.74;100.00;99857.06;5332322;27;20020;-86
2023/01/15 06:14:35;;;;;;;13.15;2.00;;;;;;;5.79;100.00;99869.91;5333634;27;20393;-86
2023/01/15 06:17:06;;;;;;;13.18;2.83;;;;;;;5.79;100.00;99868.06;5342651;27;20128;-87
2023/01/15 06:19:38;;;;;;;16.45;2.20;;;;;;;5.75;100.00;99876.41;5338315;27;20069;-86
2023/01/15 06:22:09;;;;;;;13.85;2.20;;;;;;;5.64;100.00;99891.41;5355720;27;20035;-86
2023/01/15 06:24:40;;;;;;;9.70;2.33;;;;;;;5.58;100.00;99876.09;5386343;27;20039;-86
2023/01/15 06:27:13;;;;;;;10.23;1.73;;;;;;;5.55;100.00;99883.47;5376709;27;20020;-86
2023/01/15 06:29:44;;;;;;;14.07;2.03;;;;;;;5.52;100.00;99868.66;5372602;27;20035;-86
2023/01/15 06:32:16;;;;;;;11.60;2.42;;;;;;;5.47;100.00;99876.19;5358688;27;20027;-86
2023/01/15 06:34:47;;;;;;;8.57;1.88;;;;;;;5.42;100.00;99883.69;5362693;27;20139;-87
2023/01/15 06:37:18;;;;;;;10.48;2.50;;;;;;;5.41;100.00;99890.78;5355922;27;20027;-86
2023/01/15 06:39:49;;;;;;;12.38;1.90;;;;;;;5.39;100.00;99889.25;5358567;27;20038;-86
2023/01/15 06:48:01;;;;;;;11.02;2.05;;;;;;;5.34;100.00;99873.75;5351311;27;20031;-86
2023/01/15 06:50:32;;;;;;;7.00;1.38;;;;;;;5.33;100.00;99877.38;5358879;27;20429;-86
2023/01/15 06:53:04;;;;;;;7.68;2.13;;;;;;;5.32;100.00;99880.16;5356730;27;20455;-85
2023/01/15 06:55:35;;;;;;;10.32;1.60;;;;;;;5.21;100.00;99879.28;5359678;27;20039;-85
2023/01/15 06:58:06;;;;;;;17.23;2.85;;;;;;;5.22;100.00;99883.56;5354382;27;20665;-86
2023/01/15 07:00:41;;;;;;;9.82;2.15;;;;;;;5.20;100.00;99887.34;5357843;27;20106;-85
2023/01/15 07:03:13;;;;;;;11.73;1.90;;;;;;;5.21;100.00;99884.56;5357965;27;20023;-85
2023/01/15 07:05:44;;;;;;;10.18;2.15;;;;;;;5.18;100.00;99882.16;5356206;27;20027;-86
2023/01/15 07:08:16;;;;;;;8.63;1.98;;;;;;;5.16;100.00;99883.28;5354499;27;20421;-86
2023/01/15 07:10:47;;;;;;;6.97;1.55;;;;;;;5.33;100.00;99880.03;5359794;27;20092;-86
2023/01/15 07:13:18;;;;;;;6.18;1.50;;;;;;;5.32;100.00;99893.38;5355653;27;20094;-86
2023/01/15 07:15:49;;;;;;;14.35;1.98;;;;;;;5.23;100.00;99890.56;5358945;27;20039;-86
2023/01/15 07:18:21;;;;;;;11.77;1.70;;;;;;;5.11;100.00;99910.94;5357966;27;20484;-86
2023/01/15 07:20:56;;;;;;;10.02;1.83;;;;;;;5.10;100.00;99901.34;5352289;27;20044;-86
2023/01/15 07:23:28;;;;;;;8.93;1.80;;;;;;;5.08;100.00;99905.94;5342497;27;20023;-86
2023/01/15 07:25:59;;;;;;;11.73;2.22;;;;;;;5.19;100.00;99912.94;5351213;27;20098;-86
2023/01/15 07:28:30;;;;;;;11.27;1.75;;;;;;;5.27;100.00;99925.50;5361100;27;20023;-84
2023/01/15 07:31:02;;;;;;;9.38;1.60;;;;;;;5.33;100.00;99925.00;5359618;27;20047;-84
2023/01/15 07:33:33;;;;;;;6.35;1.73;;;;;;;5.39;100.00;99918.34;5347568;27;20032;-85
2023/01/15 07:36:05;;;;;;;7.85;2.22;;;;;;;5.36;100.00;99921.22;5334521;27;20102;-86
2023/01/15 07:38:36;;;;;;;12.57;1.80;;;;;;;5.36;100.00;99926.53;5336894;27;20036;-87
2023/01/15 07:49:44;;;;;;;7.95;1.50;;;;;;;5.43;100.00;99938.25;5335418;27;20037;-86
2023/01/15 07:52:17;;;;;;;7.05;1.25;;;;;;;5.44;100.00;99932.00;5336972;27;20119;-86
2023/01/15 07:54:49;;;;;;;7.25;1.80;;;;;;;5.46;100.00;99938.00;5334257;27;20039;-85
2023/01/15 07:57:21;;;;;;;7.88;1.60;;;;;;;5.40;100.00;99938.50;5322925;27;20031;-85
2023/01/15 07:59:52;;;;;;;6.00;1.35;;;;;;;5.37;100.00;99938.78;5319045;27;20536;-85
2023/01/15 08:02:24;;;;;;;10.88;1.50;;;;;;;5.37;100.00;99952.00;5346435;27;20023;-86
2023/01/15 08:04:56;;;;;;;9.10;1.80;;;;;;;5.30;100.00;99941.94;5346896;27;20028;-86
2023/01/15 08:07:27;;;;;;;6.28;1.50;;;;;;;5.23;100.00;99942.59;5341481;27;20529;-85
2023/01/15 08:09:58;;;;;;;8.00;1.95;;;;;;;5.24;100.00;99929.25;5343655;27;20119;-84
2023/01/15 08:15:20;;;;;;;7.40;1.45;;;;;;;5.04;100.00;99943.31;5339958;27;20035;-85
2023/01/15 08:17:52;;;;;;;9.93;2.05;;;;;;;5.02;100.00;99935.50;5346639;27;20035;-86
2023/01/15 08:20:25;;;;;;;5.80;1.50;;;;;;;4.99;100.00;99940.22;5344713;27;20027;-86
2023/01/15 08:22:56;;;;;;;6.30;1.60;;;;;;;4.91;100.00;99946.16;5342552;27;20027;-85
2023/01/15 08:25:27;;;;;;;7.57;1.50;;;;;;;4.96;100.00;99956.31;5344259;27;20029;-85
2023/01/15 08:28:01;;;;;;;8.73;1.73;;;;;;;4.93;100.00;99954.78;5338750;27;20020;-85
2023/01/15 08:30:33;;;;;;;5.63;1.30;;;;;;;4.97;100.00;99971.22;5343844;27;20022;-85
2023/01/15 08:33:04;;;;;;;8.70;1.35;;;;;;;4.97;100.00;99948.25;5343354;27;20028;-85
2023/01/15 08:35:35;;;;;;;8.65;1.73;;;;;;;4.98;100.00;99968.47;5325292;27;20066;-84
2023/01/15 08:38:07;;;;;;;10.25;2.13;;;;;;;5.00;100.00;99955.94;5345964;27;20388;-84
2023/01/15 08:40:57;;;;;;;5.55;1.10;;;;;;;4.96;100.00;99967.75;5345806;27;20051;-86
2023/01/15 08:43:32;;;;;;;7.03;1.15;;;;;;;5.01;100.00;99967.34;5340784;27;20054;-85
2023/01/15 08:46:04;;;;;;;6.72;1.60;;;;;;;5.01;100.00;99931.16;5340927;27;20089;-86
2023/01/15 08:48:36;;;;;;;8.27;1.83;;;;;;;5.04;100.00;99953.88;5340899;27;20107;-84
2023/01/15 08:51:09;;;;;;;4.63;1.40;;;;;;;5.02;100.00;99943.44;5334893;27;20028;-84
2023/01/15 08:53:40;;;;;;;11.00;1.30;;;;;;;5.05;100.00;99943.19;5340573;27;20093;-84
2023/01/15 08:56:14;;;;;;;10.38;1.75;;;;;;;5.07;100.00;99932.50;5341538;27;20100;-84
2023/01/15 08:58:46;;;;;;;8.65;1.40;;;;;;;5.08;100.00;99934.16;5343369;27;20032;-85
2023/01/15 09:01:18;;;;;;;7.13;1.30;;;;;;;5.09;100.00;99925.25;5335151;27;20020;-85
2023/01/15 09:03:49;;;;;;;9.18;1.75;;;;;;;5.12;100.00;99927.66;5344995;27;20392;-85
2023/01/15 09:06:20;;;;;;;5.53;1.33;;;;;;;5.18;100.00;99921.00;5339777;27;20049;-85
2023/01/15 09:08:52;;;;;;;8.93;1.42;;;;;;;5.18;100.00;99927.13;5338561;27;20093;-86
2023/01/15 09:11:23;;;;;;;9.38;2.42;;;;;;;5.19;100.00;99931.44;5338089;27;20024;-84
2023/01/15 09:13:54;;;;;;;10.88;1.90;;;;;;;5.25;100.00;99917.69;5335483;27;20039;-86
2023/01/15 09:16:26;;;;;;;15.82;1.80;;;;;;;5.37;100.00;99914.97;5342108;27;20055;-85
2023/01/15 09:18:58;;;;;;;10.07;1.58;;;;;;;5.34;100.00;99917.88;5345896;27;20028;-85
2023/01/15 09:21:29;;;;;;;6.18;1.40;;;;;;;5.41;100.00;99925.16;5328626;27;20046;-85
2023/01/15 09:24:01;;;;;;;9.48;1.50;;;;;;;5.41;100.00;99935.72;5343414;27;20388;-85
2023/01/15 09:26:37;;;;;;;8.00;1.70;;;;;;;5.54;100.00;99930.25;5346530;27;20519;-86
2023/01/15 09:29:09;;;;;;;7.00;1.70;;;;;;;5.62;100.00;99933.03;5338774;27;20038;-86
2023/01/15 09:31:40;;;;;;;9.18;1.90;;;;;;;5.77;100.00;99932.72;5332029;27;20038;-86
2023/01/15 09:34:12;;;;;;;10.52;1.45;;;;;;;5.86;100.00;99924.78;5337890;27;20044;-86
2023/01/15 09:36:45;;;;;;;9.85;1.65;;;;;;;6.02;100.00;99921.66;5315859;27;20059;-86
2023/01/15 09:39:16;;;;;;;15.60;2.30;;;;;;;6.14;100.00;99930.34;5337907;27;20024;-86
2023/01/15 09:45:00;;;;;;;9.55;1.90;;;;;;;6.38;100.00;99937.03;5341537;27;20031;-86
2023/01/15 09:47:31;;;;;;;8.55;1.55;;;;;;;6.33;100.00;99945.44;5313756;28;20027;-86
2023/01/15 09:50:19;;;;;;;10.90;3.15;;;;;;;6.24;100.00;99932.97;5333195;27;20036;-86
2023/01/15 09:53:33;;;;;;;9.95;2.20;;;;;;;6.22;100.00;99941.09;5341659;27;20105;-85
2023/01/15 09:56:04;;;;;;;12.23;1.70;;;;;;;6.15;100.00;99939.09;5348757;27;20032;-86
2023/01/15 09:58:38;;;;;;;9.20;2.13;;;;;;;6.17;100.00;99937.16;5361647;27;20031;-85
2023/01/15 10:01:19;;;;;;;7.68;1.95;;;;;;;6.29;100.00;99954.59;5355790;27;20054;-84
2023/01/15 10:04:03;;;;;;;10.02;2.35;;;;;;;6.29;100.00;99956.41;5346139;27;20028;-85
2023/01/15 10:06:44;;;;;;;11.77;2.50;;;;;;;6.33;100.00;99948.06;5341846;27;20061;-85
2023/01/15 10:09:22;;;;;;;7.97;1.90;;;;;;;6.33;100.00;99942.78;5347102;27;20084;-85
2023/01/15 10:15:05;;;;;;;10.30;2.90;;;;;;;6.55;100.00;99968.16;5329024;27;20123;-85
2023/01/15 10:17:42;;;;;;;8.43;1.67;;;;;;;6.53;100.00;99977.25;5343539;27;20761;-86
2023/01/15 10:20:25;;;;;;;10.05;2.00;;;;;;;6.59;100.00;99963.44;5342591;27;20024;-86
2023/01/15 10:23:39;;;;;;;9.98;2.42;;;;;;;6.69;100.00;99956.31;5324185;27;20852;-85
2023/01/15 10:26:25;;;;;;;11.68;2.10;;;;;;;6.84;100.00;99974.47;5334347;27;20116;-85
2023/01/15 10:29:00;;;;;;;8.65;1.77;;;;;;;6.82;100.00;99954.25;5341056;27;20039;-85
2023/01/15 10:31:52;;;;;;;9.95;2.55;;;;;;;6.73;100.00;99981.59;5326874;27;20592;-85
2023/01/15 10:34:35;;;;;;;7.30;1.40;;;;;;;6.92;100.00;99983.38;5338529;27;20031;-86
2023/01/15 10:37:56;;;;;;;11.82;1.90;;;;;;;7.17;100.00;99975.84;5351845;27;20054;-86
2023/01/15 10:40:39;;;;;;;7.70;1.38;;;;;;;7.24;100.00;99962.84;5226673;28;20027;-86
2023/01/15 10:43:10;;;;;;;10.35;2.10;;;;;;;7.37;100.00;99972.16;5337863;27;20379;-86
2023/01/15 10:46:00;;;;;;;9.88;1.75;;;;;;;7.22;100.00;99967.47;5346834;27;20024;-87
2023/01/15 10:48:45;;;;;;;7.03;2.15;;;;;;;7.45;100.00;99952.91;5338137;27;20020;-85
2023/01/15 10:51:26;;;;;;;6.93;1.70;;;;;;;7.62;100.00;99975.19;5343524;28;20287;-85
2023/01/15 10:54:16;;;;;;;6.10;1.70;;;;;;;7.61;100.00;99973.53;5346463;27;20055;-85
2023/01/15 10:57:10;;;;;;;6.63;1.55;;;;;;;7.55;100.00;99942.25;5361966;27;20015;-85
2023/01/15 10:59:49;;;;;;;7.20;1.77;;;;;;;7.27;100.00;99946.66;5341805;28;20115;-86
2023/01/15 11:02:26;;;;;;;6.47;1.60;;;;;;;7.21;100.00;99937.44;5330005;27;20016;-86
2023/01/15 11:04:58;;;;;;;10.45;2.45;;;;;;;7.43;100.00;99949.53;5326568;27;20028;-86
2023/01/15 11:07:39;;;;;;;5.25;1.38;;;;;;;7.82;100.00;99993.69;5343833;27;20016;-86
2023/01/15 11:10:14;;;;;;;6.93;1.25;;;;;;;7.76;100.00;99956.13;5345106;27;20020;-86
2023/01/15 11:21:33;;;;;;;7.43;1.40;;;;;;;8.93;100.00;99956.44;5347012;27;20047;-86
2023/01/15 11:24:14;;;;;;;6.28;1.30;;;;;;;9.57;100.00;99954.38;5342841;27;20019;-86
2023/01/15 11:26:49;;;;;;;4.25;1.25;;;;;;;8.94;100.00;99974.03;5324676;27;20485;-86
2023/01/15 11:29:29;;;;;;;5.30;1.63;;;;;;;8.24;100.00;99966.66;5326846;27;20512;-86
2023/01/15 11:32:01;;;;;;;4.40;1.40;;;;;;;8.19;100.00;99968.94;5327932;28;20024;-85
2023/01/15 11:34:32;;;;;;;7.22;1.35;;;;;;;8.10;100.00;99968.03;5335720;27;20034;-86
2023/01/15 11:37:04;;;;;;;5.35;1.13;;;;;;;8.24;100.00;99937.44;5329620;27;20012;-86
2023/01/15 11:39:35;;;;;;;5.20;1.30;;;;;;;7.86;100.00;99966.72;5328759;28;20027;-86
2023/01/15 11:51:13;;;;;;;7.05;1.77;;;;;;;8.06;100.00;99954.16;5349339;27;20074;-85
2023/01/15 11:53:57;;;;;;;6.68;1.15;;;;;;;7.98;100.00;99974.47;5348481;27;20020;-86
2023/01/15 11:56:30;;;;;;;6.68;1.98;;;;;;;7.83;100.00;99963.53;5327454;27;20461;-86
2023/01/15 11:59:08;;;;;;;5.50;1.30;;;;;;;7.98;100.00;99974.47;5345347;27;20012;-86
2023/01/15 12:01:49;;;;;;;4.72;0.95;;;;;;;7.97;100.00;99986.09;5314011;28;20024;-86
2023/01/15 12:04:28;;;;;;;3.83;1.00;;;;;;;7.67;100.00;99961.47;5327283;27;20066;-86
2023/01/15 12:07:02;;;;;;;3.50;0.95;;;;;;;7.51;100.00;99954.97;5336242;27;20107;-86
2023/01/15 12:09:50;;;;;;;5.25;1.30;;;;;;;7.13;100.00;99993.00;5348728;27;20077;-86
2023/01/15 12:12:42;;;;;;;3.55;1.20;;;;;;;7.05;100.00;99975.16;5333648;27;20445;-86
2023/01/15 12:15:27;;;;;;;5.28;1.27;;;;;;;7.13;100.00;99961.19;5338830;27;20149;-85
2023/01/15 12:18:18;;;;;;;3.63;1.13;;;;;;;7.12;100.00;99976.28;5340301;27;20021;-86
2023/01/15 12:21:02;;;;;;;5.78;0.90;;;;;;;7.23;100.00;99971.78;5339878;27;20067;-85
2023/01/15 12:23:55;;;;;;;4.78;1.50;;;;;;;7.22;100.00;99959.50;5346574;27;20396;-85
2023/01/15 12:26:52;;;;;;;4.75;1.38;;;;;;;7.18;100.00;99956.28;5336479;27;20078;-83
2023/01/15 12:29:28;;;;;;;5.70;1.50;;;;;;;7.11;100.00;99956.03;5357954;27;20028;-85
2023/01/15 12:32:08;;;;;;;3.92;1.10;;;;;;;7.07;100.00;99948.50;5343015;27;20024;-85
2023/01/15 12:34:53;;;;;;;3.28;0.98;;;;;;;7.02;100.00;99951.56;5347264;27;20032;-85
2023/01/15 12:37:28;;;;;;;4.75;1.15;;;;;;;6.98;100.00;99942.25;5338097;27;20020;-85
2023/01/15 12:40:08;;;;;;;4.85;1.38;;;;;;;7.19;100.00;99944.72;5338214;27;20081;-85
2023/01/15 12:45:40;;;;;;;4.38;1.20;;;;;;;7.87;100.00;99951.63;5339179;27;20102;-85
2023/01/15 12:48:18;;;;;;;8.63;1.27;;;;;;;7.42;100.00;99978.88;5337218;27;20032;-85
2023/01/15 12:50:53;;;;;;;7.65;1.17;;;;;;;7.25;100.00;99928.22;5339736;27;20046;-84
2023/01/15 12:53:44;;;;;;;3.67;1.02;;;;;;;7.19;100.00;99966.78;5339287;27;20028;-85
2023/01/15 12:56:29;;;;;;;5.03;1.30;;;;;;;7.22;100.00;99959.50;5342355;27;20110;-85
2023/01/15 12:59:10;;;;;;;7.15;1.40;;;;;;;7.11;100.00;99968.47;5313900;27;20460;-85
2023/01/15 13:01:56;;;;;;;3.63;1.20;;;;;;;7.18;100.00;100010.16;5337829;27;20119;-85
2023/01/15 13:04:41;;;;;;;6.90;1.10;;;;;;;7.43;100.00;99946.06;5343161;27;20023;-85
2023/01/15 13:07:49;;;;;;;4.70;1.13;;;;;;;7.80;100.00;99948.72;5340365;27;20083;-84
2023/01/15 13:10:35;;;;;;;3.17;1.00;;;;;;;7.66;100.00;99946.53;5338048;27;21928;-84